sensor_id;sensor_type;location;lat;lon;timestamp;pressure;altitude;pressure_sealevel;temperature;humidity
60852;BME280;48553;50.766;2.900;2023-04-06T00:01:41;101057.47;;;10.58;64.15
60852;BME280;48553;50.766;2.900;2023-04-06T00:04:41;101061.19;;;10.54;64.46
60852;BME280;48553;50.766;2.900;2023-04-06T00:07:42;101055.25;;;10.52;64.38
60852;BME280;48553;50.766;2.900;2023-04-06T00:10:42;101053.28;;;10.52;64.53
60852;BME280;48553;50.766;2.900;2023-04-06T00:13:43;101048.47;;;10.49;64.57
60852;BME280;48553;50.766;2.900;2023-04-06T00:16:43;101046.69;;;10.44;64.78
60852;BME280;48553;50.766;2.900;2023-04-06T00:19:44;101036.09;;;10.43;64.76
60852;BME280;48553;50.766;2.900;2023-04-06T00:22:44;101035.28;;;10.42;64.84
60852;BME280;48553;50.766;2.900;2023-04-06T00:25:45;101032.06;;;10.40;64.89
60852;BME280;48553;50.766;2.900;2023-04-06T00:28:45;101026.09;;;10.38;64.89
60852;BME280;48553;50.766;2.900;2023-04-06T00:31:46;101020.81;;;10.33;65.05
60852;BME280;48553;50.766;2.900;2023-04-06T00:34:46;101028.56;;;10.31;64.91
60852;BME280;48553;50.766;2.900;2023-04-06T00:37:47;101017.59;;;10.31;65.14
60852;BME280;48553;50.766;2.900;2023-04-06T00:40:50;101017.91;;;10.30;65.01
60852;BME280;48553;50.766;2.900;2023-04-06T00:43:51;101013.88;;;10.27;65.42
60852;BME280;48553;50.766;2.900;2023-04-06T00:46:51;101013.38;;;10.25;65.35
60852;BME280;48553;50.766;2.900;2023-04-06T00:49:52;101007.25;;;10.19;65.57
60852;BME280;48553;50.766;2.900;2023-04-06T00:52:54;101006.16;;;10.20;65.46
60852;BME280;48553;50.766;2.900;2023-04-06T00:55:55;101004.53;;;10.19;65.51
60852;BME280;48553;50.766;2.900;2023-04-06T00:58:55;100997.13;;;10.20;65.64
60852;BME280;48553;50.766;2.900;2023-04-06T01:01:56;101000.38;;;10.13;65.67
60852;BME280;48553;50.766;2.900;2023-04-06T01:04:56;100996.69;;;10.09;65.59
60852;BME280;48553;50.766;2.900;2023-04-06T01:07:57;100998.13;;;10.07;65.60
60852;BME280;48553;50.766;2.900;2023-04-06T01:10:59;100988.97;;;10.02;65.74
60852;BME280;48553;50.766;2.900;2023-04-06T01:14:00;100991.38;;;10.04;66.25
60852;BME280;48553;50.766;2.900;2023-04-06T01:17:01;100995.72;;;10.05;65.58
60852;BME280;48553;50.766;2.900;2023-04-06T01:20:01;100990.09;;;10.01;66.05
60852;BME280;48553;50.766;2.900;2023-04-06T01:23:02;100983.31;;;9.99;66.03
60852;BME280;48553;50.766;2.900;2023-04-06T01:26:02;100970.44;;;9.99;65.98
60852;BME280;48553;50.766;2.900;2023-04-06T01:29:03;100974.97;;;9.95;66.17
60852;BME280;48553;50.766;2.900;2023-04-06T01:32:03;100977.69;;;9.95;66.37
60852;BME280;48553;50.766;2.900;2023-04-06T01:35:04;100965.59;;;9.96;66.42
60852;BME280;48553;50.766;2.900;2023-04-06T01:38:05;100970.78;;;9.89;66.64
60852;BME280;48553;50.766;2.900;2023-04-06T01:41:05;100958.84;;;9.94;66.58
60852;BME280;48553;50.766;2.900;2023-04-06T01:44:06;100957.09;;;9.89;66.79
60852;BME280;48553;50.766;2.900;2023-04-06T01:47:06;100951.63;;;9.89;66.98
60852;BME280;48553;50.766;2.900;2023-04-06T01:50:07;100939.72;;;9.85;66.96
60852;BME280;48553;50.766;2.900;2023-04-06T01:53:07;100946.47;;;9.88;66.95
60852;BME280;48553;50.766;2.900;2023-04-06T01:56:08;100943.41;;;9.89;67.19
60852;BME280;48553;50.766;2.900;2023-04-06T01:59:08;100951.50;;;9.86;67.49
60852;BME280;48553;50.766;2.900;2023-04-06T02:02:08;100940.84;;;9.84;67.34
60852;BME280;48553;50.766;2.900;2023-04-06T02:05:09;100936.50;;;9.83;67.58
60852;BME280;48553;50.766;2.900;2023-04-06T02:08:10;100938.44;;;9.82;67.76
60852;BME280;48553;50.766;2.900;2023-04-06T02:11:10;100940.69;;;9.80;68.03
60852;BME280;48553;50.766;2.900;2023-04-06T02:14:11;100941.03;;;9.79;67.98
60852;BME280;48553;50.766;2.900;2023-04-06T02:17:11;100939.56;;;9.81;68.19
60852;BME280;48553;50.766;2.900;2023-04-06T02:20:12;100933.44;;;9.76;68.42
60852;BME280;48553;50.766;2.900;2023-04-06T02:23:12;100936.53;;;9.74;68.74
60852;BME280;48553;50.766;2.900;2023-04-06T02:26:13;100929.44;;;9.73;68.56
60852;BME280;48553;50.766;2.900;2023-04-06T02:29:14;100926.38;;;9.75;68.76
60852;BME280;48553;50.766;2.900;2023-04-06T02:32:14;100924.28;;;9.72;68.72
60852;BME280;48553;50.766;2.900;2023-04-06T02:35:15;100933.63;;;9.71;68.94
60852;BME280;48553;50.766;2.900;2023-04-06T02:38:15;100923.84;;;9.70;69.11
60852;BME280;48553;50.766;2.900;2023-04-06T02:41:15;100925.91;;;9.73;69.28
60852;BME280;48553;50.766;2.900;2023-04-06T02:44:16;100914.31;;;9.67;69.55
60852;BME280;48553;50.766;2.900;2023-04-06T02:47:16;100919.94;;;9.71;69.39
60852;BME280;48553;50.766;2.900;2023-04-06T02:50:17;100916.72;;;9.69;69.51
60852;BME280;48553;50.766;2.900;2023-04-06T02:53:17;100921.25;;;9.65;69.74
60852;BME280;48553;50.766;2.900;2023-04-06T02:56:18;100915.44;;;9.66;70.06
60852;BME280;48553;50.766;2.900;2023-04-06T02:59:19;100918.19;;;9.66;70.08
60852;BME280;48553;50.766;2.900;2023-04-06T03:02:19;100919.47;;;9.69;70.01
60852;BME280;48553;50.766;2.900;2023-04-06T03:05:20;100913.38;;;9.63;70.60
60852;BME280;48553;50.766;2.900;2023-04-06T03:08:20;100915.28;;;9.62;70.42
60852;BME280;48553;50.766;2.900;2023-04-06T03:11:21;100914.50;;;9.62;70.96
60852;BME280;48553;50.766;2.900;2023-04-06T03:14:21;100917.88;;;9.59;71.08
60852;BME280;48553;50.766;2.900;2023-04-06T03:17:22;100907.56;;;9.56;71.16
60852;BME280;48553;50.766;2.900;2023-04-06T03:20:22;100908.06;;;9.58;71.25
60852;BME280;48553;50.766;2.900;2023-04-06T03:23:23;100908.41;;;9.56;71.34
60852;BME280;48553;50.766;2.900;2023-04-06T03:26:23;100902.94;;;9.56;71.66
60852;BME280;48553;50.766;2.900;2023-04-06T03:29:24;100897.47;;;9.56;71.57
60852;BME280;48553;50.766;2.900;2023-04-06T03:32:24;100891.50;;;9.54;72.01
60852;BME280;48553;50.766;2.900;2023-04-06T03:35:25;100889.09;;;9.53;72.04
60852;BME280;48553;50.766;2.900;2023-04-06T03:38:25;100881.34;;;9.55;71.89
60852;BME280;48553;50.766;2.900;2023-04-06T03:41:26;100874.59;;;9.52;72.01
60852;BME280;48553;50.766;2.900;2023-04-06T03:44:26;100882.00;;;9.52;72.20
60852;BME280;48553;50.766;2.900;2023-04-06T03:47:26;100886.66;;;9.51;72.08
60852;BME280;48553;50.766;2.900;2023-04-06T03:50:27;100871.88;;;9.52;72.35
60852;BME280;48553;50.766;2.900;2023-04-06T03:53:27;100876.06;;;9.50;72.78
60852;BME280;48553;50.766;2.900;2023-04-06T03:56:28;100860.75;;;9.49;72.98
60852;BME280;48553;50.766;2.900;2023-04-06T03:59:28;100866.91;;;9.46;73.15
60852;BME280;48553;50.766;2.900;2023-04-06T04:02:28;100866.09;;;9.45;73.12
60852;BME280;48553;50.766;2.900;2023-04-06T04:05:29;100863.00;;;9.47;73.33
60852;BME280;48553;50.766;2.900;2023-04-06T04:08:30;100855.78;;;9.42;73.49
60852;BME280;48553;50.766;2.900;2023-04-06T04:11:30;100860.31;;;9.38;73.94
60852;BME280;48553;50.766;2.900;2023-04-06T04:14:31;100857.91;;;9.36;74.00
60852;BME280;48553;50.766;2.900;2023-04-06T04:17:31;100852.56;;;9.40;73.92
60852;BME280;48553;50.766;2.900;2023-04-06T04:20:32;100854.38;;;9.36;73.65
60852;BME280;48553;50.766;2.900;2023-04-06T04:23:32;100846.31;;;9.31;74.06
60852;BME280;48553;50.766;2.900;2023-04-06T04:26:33;100850.66;;;9.32;74.05
60852;BME280;48553;50.766;2.900;2023-04-06T04:29:33;100841.81;;;9.35;73.87
60852;BME280;48553;50.766;2.900;2023-04-06T04:32:34;100849.88;;;9.31;73.96
60852;BME280;48553;50.766;2.900;2023-04-06T04:35:34;100846.31;;;9.31;73.88
60852;BME280;48553;50.766;2.900;2023-04-06T04:38:35;100841.66;;;9.31;73.88
60852;BME280;48553;50.766;2.900;2023-04-06T04:41:36;100843.09;;;9.29;73.85
60852;BME280;48553;50.766;2.900;2023-04-06T04:44:36;100843.28;;;9.24;74.26
60852;BME280;48553;50.766;2.900;2023-04-06T04:47:37;100843.28;;;9.24;74.23
60852;BME280;48553;50.766;2.900;2023-04-06T04:50:37;100846.50;;;9.26;73.72
60852;BME280;48553;50.766;2.900;2023-04-06T04:53:38;100843.09;;;9.29;74.13
60852;BME280;48553;50.766;2.900;2023-04-06T04:56:38;100836.69;;;9.25;74.08
60852;BME280;48553;50.766;2.900;2023-04-06T04:59:39;100835.56;;;9.26;73.89
60852;BME280;48553;50.766;2.900;2023-04-06T05:02:39;100845.22;;;9.23;74.67
60852;BME280;48553;50.766;2.900;2023-04-06T05:05:39;100833.97;;;9.25;74.26
60852;BME280;48553;50.766;2.900;2023-04-06T05:08:41;100836.84;;;9.19;74.42
60852;BME280;48553;50.766;2.900;2023-04-06T05:11:41;100820.44;;;9.19;74.52
60852;BME280;48553;50.766;2.900;2023-04-06T05:14:42;100820.91;;;9.22;74.68
60852;BME280;48553;50.766;2.900;2023-04-06T05:17:42;100827.03;;;9.18;74.62
60852;BME280;48553;50.766;2.900;2023-04-06T05:20:43;100825.28;;;9.14;74.96
60852;BME280;48553;50.766;2.900;2023-04-06T05:23:43;100826.56;;;9.16;74.60
60852;BME280;48553;50.766;2.900;2023-04-06T05:26:43;100822.53;;;9.14;74.73
60852;BME280;48553;50.766;2.900;2023-04-06T05:29:44;100814.81;;;9.16;75.05
60852;BME280;48553;50.766;2.900;2023-04-06T05:32:45;100810.81;;;9.13;75.04
60852;BME280;48553;50.766;2.900;2023-04-06T05:35:45;100809.84;;;9.09;75.19
60852;BME280;48553;50.766;2.900;2023-04-06T05:38:46;100807.13;;;9.09;75.57
60852;BME280;48553;50.766;2.900;2023-04-06T05:41:49;100809.06;;;9.09;75.39
60852;BME280;48553;50.766;2.900;2023-04-06T05:44:49;100809.84;;;9.09;75.13
60852;BME280;48553;50.766;2.900;2023-04-06T05:47:50;100795.03;;;9.10;75.73
60852;BME280;48553;50.766;2.900;2023-04-06T05:50:50;100797.28;;;9.08;75.62
60852;BME280;48553;50.766;2.900;2023-04-06T05:53:51;100799.56;;;9.06;75.56
60852;BME280;48553;50.766;2.900;2023-04-06T05:56:51;100800.84;;;9.09;75.78
60852;BME280;48553;50.766;2.900;2023-04-06T05:59:52;100798.59;;;9.02;76.15
60852;BME280;48553;50.766;2.900;2023-04-06T06:02:52;100788.94;;;9.05;75.99
60852;BME280;48553;50.766;2.900;2023-04-06T06:05:52;100786.06;;;9.01;76.21
60852;BME280;48553;50.766;2.900;2023-04-06T06:08:53;100786.22;;;9.05;76.23
60852;BME280;48553;50.766;2.900;2023-04-06T06:11:53;100784.28;;;9.05;76.47
60852;BME280;48553;50.766;2.900;2023-04-06T06:14:54;100793.28;;;9.06;75.95
60852;BME280;48553;50.766;2.900;2023-04-06T06:17:55;100784.94;;;9.02;76.20
60852;BME280;48553;50.766;2.900;2023-04-06T06:20:55;100779.78;;;9.01;76.50
60852;BME280;48553;50.766;2.900;2023-04-06T06:23:56;100785.41;;;9.04;76.59
60852;BME280;48553;50.766;2.900;2023-04-06T06:26:56;100781.41;;;9.02;76.62
60852;BME280;48553;50.766;2.900;2023-04-06T06:29:57;100777.06;;;9.01;76.65
60852;BME280;48553;50.766;2.900;2023-04-06T06:32:57;100788.47;;;9.03;76.77
60852;BME280;48553;50.766;2.900;2023-04-06T06:35:57;100779.00;;;9.00;77.16
60852;BME280;48553;50.766;2.900;2023-04-06T06:38:58;100767.75;;;9.02;77.08
60852;BME280;48553;50.766;2.900;2023-04-06T06:41:59;100779.13;;;9.04;76.88
60852;BME280;48553;50.766;2.900;2023-04-06T06:45:01;100773.53;;;9.00;77.08
60852;BME280;48553;50.766;2.900;2023-04-06T06:48:02;100766.78;;;8.97;77.28
60852;BME280;48553;50.766;2.900;2023-04-06T06:51:02;100774.97;;;8.97;77.16
60852;BME280;48553;50.766;2.900;2023-04-06T06:54:03;100767.56;;;8.98;77.55
60852;BME280;48553;50.766;2.900;2023-04-06T06:57:03;100760.16;;;8.98;77.45
60852;BME280;48553;50.766;2.900;2023-04-06T07:00:05;100771.91;;;8.99;77.46
60852;BME280;48553;50.766;2.900;2023-04-06T07:03:06;100757.44;;;8.98;77.63
60852;BME280;48553;50.766;2.900;2023-04-06T07:06:06;100769.03;;;8.95;78.10
60852;BME280;48553;50.766;2.900;2023-04-06T07:09:07;100759.69;;;8.96;78.07
60852;BME280;48553;50.766;2.900;2023-04-06T07:12:07;100767.56;;;8.98;77.95
60852;BME280;48553;50.766;2.900;2023-04-06T07:15:08;100755.69;;;8.94;77.94
60852;BME280;48553;50.766;2.900;2023-04-06T07:18:08;100759.69;;;8.96;77.74
60852;BME280;48553;50.766;2.900;2023-04-06T07:21:09;100750.22;;;8.94;78.44
60852;BME280;48553;50.766;2.900;2023-04-06T07:24:09;100758.41;;;8.94;78.48
60852;BME280;48553;50.766;2.900;2023-04-06T07:27:10;100752.16;;;8.93;78.29
60852;BME280;48553;50.766;2.900;2023-04-06T07:30:10;100751.00;;;8.94;78.41
60852;BME280;48553;50.766;2.900;2023-04-06T07:33:11;100748.13;;;8.91;78.57
60852;BME280;48553;50.766;2.900;2023-04-06T07:36:12;100748.94;;;8.91;78.46
60852;BME280;48553;50.766;2.900;2023-04-06T07:39:12;100759.88;;;8.91;78.99
60852;BME280;48553;50.766;2.900;2023-04-06T07:42:13;100747.78;;;8.92;79.09
60852;BME280;48553;50.766;2.900;2023-04-06T07:45:13;100753.59;;;8.91;79.00
60852;BME280;48553;50.766;2.900;2023-04-06T07:48:13;100751.34;;;8.93;79.46
60852;BME280;48553;50.766;2.900;2023-04-06T07:51:14;100751.34;;;8.93;79.61
60852;BME280;48553;50.766;2.900;2023-04-06T07:54:15;100749.91;;;8.87;79.76
60852;BME280;48553;50.766;2.900;2023-04-06T07:57:15;100748.94;;;8.91;79.73
60852;BME280;48553;50.766;2.900;2023-04-06T08:00:16;100756.66;;;8.89;79.76
60852;BME280;48553;50.766;2.900;2023-04-06T08:03:17;100747.00;;;8.92;79.86
60852;BME280;48553;50.766;2.900;2023-04-06T08:06:17;100751.66;;;8.91;79.72
60852;BME280;48553;50.766;2.900;2023-04-06T08:09:17;100757.44;;;8.90;79.75
60852;BME280;48553;50.766;2.900;2023-04-06T08:12:18;100745.06;;;8.92;79.92
60852;BME280;48553;50.766;2.900;2023-04-06T08:15:18;100740.72;;;8.91;79.77
60852;BME280;48553;50.766;2.900;2023-04-06T08:18:19;100739.47;;;8.89;79.92
60852;BME280;48553;50.766;2.900;2023-04-06T08:21:19;100740.25;;;8.89;80.45
60852;BME280;48553;50.766;2.900;2023-04-06T08:24:20;100737.69;;;8.93;80.03
60852;BME280;48553;50.766;2.900;2023-04-06T08:27:20;100738.78;;;8.92;80.48
60852;BME280;48553;50.766;2.900;2023-04-06T08:30:21;100734.78;;;8.89;80.75
60852;BME280;48553;50.766;2.900;2023-04-06T08:33:21;100751.50;;;8.96;80.60
60852;BME280;48553;50.766;2.900;2023-04-06T08:36:22;100746.38;;;8.95;80.53
60852;BME280;48553;50.766;2.900;2023-04-06T08:39:23;100743.78;;;8.98;80.31
60852;BME280;48553;50.766;2.900;2023-04-06T08:42:26;100741.22;;;8.93;80.82
60852;BME280;48553;50.766;2.900;2023-04-06T08:45:26;100731.56;;;8.96;80.82
60852;BME280;48553;50.766;2.900;2023-04-06T08:48:27;100737.50;;;8.98;80.78
60852;BME280;48553;50.766;2.900;2023-04-06T08:51:29;100728.03;;;8.95;81.33
60852;BME280;48553;50.766;2.900;2023-04-06T08:54:30;100732.34;;;8.96;81.19
60852;BME280;48553;50.766;2.900;2023-04-06T08:57:30;100729.63;;;8.96;81.19
60852;BME280;48553;50.766;2.900;2023-04-06T09:00:32;100727.72;;;8.97;81.66
60852;BME280;48553;50.766;2.900;2023-04-06T09:03:37;100721.41;;;8.96;81.67
60852;BME280;48553;50.766;2.900;2023-04-06T09:06:39;100722.69;;;8.99;81.68
60852;BME280;48553;50.766;2.900;2023-04-06T09:09:41;100730.75;;;9.04;81.77
60852;BME280;48553;50.766;2.900;2023-04-06T09:12:47;100723.19;;;9.01;82.15
60852;BME280;48553;50.766;2.900;2023-04-06T09:16:04;100728.81;;;9.05;82.15
60852;BME280;48553;50.766;2.900;2023-04-06T09:19:06;100722.69;;;8.99;82.57
60852;BME280;48553;50.766;2.900;2023-04-06T09:22:06;100720.91;;;9.03;82.62
60852;BME280;48553;50.766;2.900;2023-04-06T09:25:08;100720.44;;;9.01;82.72
60852;BME280;48553;50.766;2.900;2023-04-06T09:28:10;100720.59;;;9.05;82.95
60852;BME280;48553;50.766;2.900;2023-04-06T09:31:11;100710.00;;;9.03;83.44
60852;BME280;48553;50.766;2.900;2023-04-06T09:34:20;100714.34;;;9.04;83.21
60852;BME280;48553;50.766;2.900;2023-04-06T09:37:21;100718.66;;;9.05;83.41
60852;BME280;48553;50.766;2.900;2023-04-06T09:40:21;100721.09;;;9.07;83.12
60852;BME280;48553;50.766;2.900;2023-04-06T09:43:29;100714.81;;;9.06;83.57
60852;BME280;48553;50.766;2.900;2023-04-06T09:46:41;100704.34;;;9.08;83.23
60852;BME280;48553;50.766;2.900;2023-04-06T09:49:42;100710.94;;;9.07;83.79
60852;BME280;48553;50.766;2.900;2023-04-06T09:52:48;100713.84;;;9.11;83.77
60852;BME280;48553;50.766;2.900;2023-04-06T09:55:51;100708.38;;;9.11;83.98
60852;BME280;48553;50.766;2.900;2023-04-06T09:59:02;100708.03;;;9.12;84.20
60852;BME280;48553;50.766;2.900;2023-04-06T10:02:05;100696.47;;;9.15;84.30
60852;BME280;48553;50.766;2.900;2023-04-06T10:05:09;100703.84;;;9.15;85.04
60852;BME280;48553;50.766;2.900;2023-04-06T10:08:13;100699.66;;;9.17;84.66
60852;BME280;48553;50.766;2.900;2023-04-06T10:11:14;100701.25;;;9.18;84.96
60852;BME280;48553;50.766;2.900;2023-04-06T10:14:16;100699.66;;;9.17;84.65
60852;BME280;48553;50.766;2.900;2023-04-06T10:17:16;100689.53;;;9.18;85.06
60852;BME280;48553;50.766;2.900;2023-04-06T10:20:39;100691.91;;;9.19;84.76
60852;BME280;48553;50.766;2.900;2023-04-06T10:24:02;100688.38;;;9.19;84.82
60852;BME280;48553;50.766;2.900;2023-04-06T10:27:07;100684.19;;;9.22;85.08
60852;BME280;48553;50.766;2.900;2023-04-06T10:30:15;100684.66;;;9.24;84.75
60852;BME280;48553;50.766;2.900;2023-04-06T10:33:17;100678.09;;;9.25;85.19
60852;BME280;48553;50.766;2.900;2023-04-06T10:36:23;100687.88;;;9.26;85.10
60852;BME280;48553;50.766;2.900;2023-04-06T10:39:24;100679.84;;;9.29;84.75
60852;BME280;48553;50.766;2.900;2023-04-06T10:42:36;100678.38;;;9.32;84.53
60852;BME280;48553;50.766;2.900;2023-04-06T10:45:37;100675.63;;;9.32;84.96
60852;BME280;48553;50.766;2.900;2023-04-06T10:48:45;100669.38;;;9.31;85.10
60852;BME280;48553;50.766;2.900;2023-04-06T10:51:52;100670.28;;;9.35;84.95
60852;BME280;48553;50.766;2.900;2023-04-06T10:54:53;100669.31;;;9.40;85.17
60852;BME280;48553;50.766;2.900;2023-04-06T10:57:56;100669.13;;;9.45;85.33
60852;BME280;48553;50.766;2.900;2023-04-06T11:00:57;100668.47;;;9.48;85.08
60852;BME280;48553;50.766;2.900;2023-04-06T11:03:57;100657.19;;;9.50;85.21
60852;BME280;48553;50.766;2.900;2023-04-06T11:07:01;100659.59;;;9.51;84.55
60852;BME280;48553;50.766;2.900;2023-04-06T11:10:01;100651.84;;;9.53;84.56
60852;BME280;48553;50.766;2.900;2023-04-06T11:13:02;100644.13;;;9.55;85.09
60852;BME280;48553;50.766;2.900;2023-04-06T11:16:03;100649.59;;;9.55;85.30
60852;BME280;48553;50.766;2.900;2023-04-06T11:19:05;100647.31;;;9.57;85.10
60852;BME280;48553;50.766;2.900;2023-04-06T11:22:09;100633.44;;;9.62;85.18
60852;BME280;48553;50.766;2.900;2023-04-06T11:25:10;100639.88;;;9.67;84.52
60852;BME280;48553;50.766;2.900;2023-04-06T11:28:11;100634.88;;;9.69;85.29
60852;BME280;48553;50.766;2.900;2023-04-06T11:31:12;100642.75;;;9.70;85.17
60852;BME280;48553;50.766;2.900;2023-04-06T11:34:16;100649.50;;;9.73;85.14
60852;BME280;48553;50.766;2.900;2023-04-06T11:37:17;100628.88;;;9.75;84.95
60852;BME280;48553;50.766;2.900;2023-04-06T11:40:22;100628.53;;;9.77;85.35
60852;BME280;48553;50.766;2.900;2023-04-06T11:43:27;100632.88;;;9.78;84.82
60852;BME280;48553;50.766;2.900;2023-04-06T11:46:28;100633.66;;;9.78;85.35
60852;BME280;48553;50.766;2.900;2023-04-06T11:49:29;100619.66;;;9.80;85.76
60852;BME280;48553;50.766;2.900;2023-04-06T11:52:30;100621.38;;;9.85;84.72
60852;BME280;48553;50.766;2.900;2023-04-06T11:55:37;100615.59;;;9.86;84.73
60852;BME280;48553;50.766;2.900;2023-04-06T11:58:38;100621.06;;;9.86;84.50
60852;BME280;48553;50.766;2.900;2023-04-06T12:01:45;100615.69;;;9.90;84.96
60852;BME280;48553;50.766;2.900;2023-04-06T12:04:45;100617.31;;;9.91;84.45
60852;BME280;48553;50.766;2.900;2023-04-06T12:07:46;100614.69;;;9.94;84.30
60852;BME280;48553;50.766;2.900;2023-04-06T12:10:46;100610.84;;;9.95;85.19
60852;BME280;48553;50.766;2.900;2023-04-06T12:13:47;100611.78;;;9.99;84.88
60852;BME280;48553;50.766;2.900;2023-04-06T12:16:47;100611.09;;;10.02;84.74
60852;BME280;48553;50.766;2.900;2023-04-06T12:19:48;100619.47;;;10.06;85.16
60852;BME280;48553;50.766;2.900;2023-04-06T12:22:48;100616.03;;;10.09;84.08
60852;BME280;48553;50.766;2.900;2023-04-06T12:25:49;100610.34;;;10.14;84.70
60852;BME280;48553;50.766;2.900;2023-04-06T12:28:49;100604.78;;;10.23;85.65
60852;BME280;48553;50.766;2.900;2023-04-06T12:31:50;100613.28;;;10.30;90.55
60852;BME280;48553;50.766;2.900;2023-04-06T12:34:52;100613.91;;;10.36;91.02
60852;BME280;48553;50.766;2.900;2023-04-06T12:37:53;100615.47;;;10.37;89.42
60852;BME280;48553;50.766;2.900;2023-04-06T12:40:53;100616.63;;;10.36;87.81
60852;BME280;48553;50.766;2.900;2023-04-06T12:43:54;100609.91;;;10.33;88.44
60852;BME280;48553;50.766;2.900;2023-04-06T12:46:55;100610.47;;;10.39;88.36
60852;BME280;48553;50.766;2.900;2023-04-06T12:49:55;100605.47;;;10.41;85.82
60852;BME280;48553;50.766;2.900;2023-04-06T12:52:56;100611.41;;;10.43;88.65
60852;BME280;48553;50.766;2.900;2023-04-06T12:55:57;100614.13;;;10.43;87.34
60852;BME280;48553;50.766;2.900;2023-04-06T12:58:58;100617.34;;;10.45;86.48
60852;BME280;48553;50.766;2.900;2023-04-06T13:01:58;100611.66;;;10.50;87.82
60852;BME280;48553;50.766;2.900;2023-04-06T13:04:59;100601.94;;;10.53;87.93
60852;BME280;48553;50.766;2.900;2023-04-06T13:08:00;100598.50;;;10.56;88.64
60852;BME280;48553;50.766;2.900;2023-04-06T13:11:00;100624.56;;;10.62;88.50
60852;BME280;48553;50.766;2.900;2023-04-06T13:14:01;100615.31;;;10.66;90.23
60852;BME280;48553;50.766;2.900;2023-04-06T13:17:01;100602.56;;;10.71;89.20
60852;BME280;48553;50.766;2.900;2023-04-06T13:20:01;100600.72;;;10.75;90.10
60852;BME280;48553;50.766;2.900;2023-04-06T13:23:03;100604.03;;;10.80;89.45
60852;BME280;48553;50.766;2.900;2023-04-06T13:26:05;100610.44;;;10.84;88.12
60852;BME280;48553;50.766;2.900;2023-04-06T13:29:06;100604.41;;;10.91;89.15
60852;BME280;48553;50.766;2.900;2023-04-06T13:32:07;100611.03;;;10.90;88.86
60852;BME280;48553;50.766;2.900;2023-04-06T13:35:09;100604.72;;;10.90;87.80
60852;BME280;48553;50.766;2.900;2023-04-06T13:38:10;100607.59;;;10.93;88.45
60852;BME280;48553;50.766;2.900;2023-04-06T13:41:20;100607.28;;;10.95;87.76
60852;BME280;48553;50.766;2.900;2023-04-06T13:44:21;100612.75;;;10.95;87.64
60852;BME280;48553;50.766;2.900;2023-04-06T13:47:21;100602.91;;;10.94;87.05
60852;BME280;48553;50.766;2.900;2023-04-06T13:50:22;100607.59;;;10.93;84.83
60852;BME280;48553;50.766;2.900;2023-04-06T13:53:22;100606.44;;;10.94;84.26
60852;BME280;48553;50.766;2.900;2023-04-06T13:56:22;100608.06;;;10.95;84.72
60852;BME280;48553;50.766;2.900;2023-04-06T13:59:23;100611.28;;;10.97;83.98
60852;BME280;48553;50.766;2.900;2023-04-06T14:02:23;100607.13;;;11.03;85.44
60852;BME280;48553;50.766;2.900;2023-04-06T14:05:31;100610.81;;;11.07;85.78
60852;BME280;48553;50.766;2.900;2023-04-06T14:08:31;100606.00;;;11.17;86.52
60852;BME280;48553;50.766;2.900;2023-04-06T14:11:32;100612.53;;;11.24;87.06
60852;BME280;48553;50.766;2.900;2023-04-06T14:14:32;100603.59;;;11.27;87.01
60852;BME280;48553;50.766;2.900;2023-04-06T14:17:33;100613.88;;;11.31;86.63
60852;BME280;48553;50.766;2.900;2023-04-06T14:20:33;100621.44;;;11.34;86.72
60852;BME280;48553;50.766;2.900;2023-04-06T14:23:34;100615.72;;;11.39;87.00
60852;BME280;48553;50.766;2.900;2023-04-06T14:26:35;100613.19;;;11.46;86.44
60852;BME280;48553;50.766;2.900;2023-04-06T14:29:36;100622.78;;;11.52;86.72
60852;BME280;48553;50.766;2.900;2023-04-06T14:32:36;100626.56;;;11.60;86.65
60852;BME280;48553;50.766;2.900;2023-04-06T14:35:38;100623.88;;;11.76;87.26
60852;BME280;48553;50.766;2.900;2023-04-06T14:38:39;100610.38;;;11.95;86.36
60852;BME280;48553;50.766;2.900;2023-04-06T14:41:40;100618.75;;;12.15;85.82
60852;BME280;48553;50.766;2.900;2023-04-06T14:44:41;100613.31;;;12.30;85.89
60852;BME280;48553;50.766;2.900;2023-04-06T14:47:43;100610.84;;;12.41;85.18
60852;BME280;48553;50.766;2.900;2023-04-06T14:50:52;100601.28;;;12.51;84.56
60852;BME280;48553;50.766;2.900;2023-04-06T14:53:56;100605.72;;;12.56;84.10
60852;BME280;48553;50.766;2.900;2023-04-06T14:56:56;100599.59;;;12.46;84.36
60852;BME280;48553;50.766;2.900;2023-04-06T14:59:57;100610.84;;;12.41;84.34
60852;BME280;48553;50.766;2.900;2023-04-06T15:02:57;100614.41;;;12.42;84.49
60852;BME280;48553;50.766;2.900;2023-04-06T15:05:58;100608.81;;;12.38;83.95
60852;BME280;48553;50.766;2.900;2023-04-06T15:08:58;100605.06;;;12.30;83.83
60852;BME280;48553;50.766;2.900;2023-04-06T15:11:59;100615.19;;;12.26;83.76
60852;BME280;48553;50.766;2.900;2023-04-06T15:15:00;100615.53;;;12.25;83.33
60852;BME280;48553;50.766;2.900;2023-04-06T15:18:01;100611.88;;;12.21;84.14
60852;BME280;48553;50.766;2.900;2023-04-06T15:21:02;100609.91;;;12.21;84.19
60852;BME280;48553;50.766;2.900;2023-04-06T15:24:03;100608.22;;;12.17;84.08
60852;BME280;48553;50.766;2.900;2023-04-06T15:27:06;100613.25;;;12.15;83.76
60852;BME280;48553;50.766;2.900;2023-04-06T15:30:06;100609.97;;;12.09;83.67
60852;BME280;48553;50.766;2.900;2023-04-06T15:33:07;100619.16;;;12.01;83.73
60852;BME280;48553;50.766;2.900;2023-04-06T15:36:22;100623.66;;;11.93;83.76
60852;BME280;48553;50.766;2.900;2023-04-06T15:39:23;100619.19;;;11.88;84.01
60852;BME280;48553;50.766;2.900;2023-04-06T15:42:24;100612.78;;;11.84;83.54
60852;BME280;48553;50.766;2.900;2023-04-06T15:45:25;100626.75;;;11.79;83.21
60852;BME280;48553;50.766;2.900;2023-04-06T15:48:25;100629.38;;;11.76;83.01
60852;BME280;48553;50.766;2.900;2023-04-06T15:51:26;100627.78;;;11.75;82.54
60852;BME280;48553;50.766;2.900;2023-04-06T15:54:26;100627.69;;;11.71;83.17
60852;BME280;48553;50.766;2.900;2023-04-06T15:57:27;100632.38;;;11.70;82.52